Time;durP1;ratioP1;P1;durP2;ratioP2;P2;SDS_P1;SDS_P2;PMS_P1;PMS_P2;Temp;Humidity;BMP_temperature;BMP_pressure;BME280_temperature;BME280_humidity;BME280_pressure;Samples;Min_cycle;Max_cycle;Signal;HPM_P1;HPM_P2
2024/01/01 00:01:49;;;;;;;9.68;5.07;;;;;;;4.11;100.00;96439.56;4978834;28;20056;-66
2024/01/01 00:04:16;;;;;;;11.52;5.50;;;;;;;4.09;100.00;96439.78;4980435;28;20517;-68
2024/01/01 00:06:42;;;;;;;9.63;4.60;;;;;;;4.11;100.00;96437.69;4977335;28;20053;-67
2024/01/01 00:09:09;;;;;;;10.60;4.47;;;;;;;4.14;100.00;96450.63;4978913;28;20038;-65
2024/01/01 00:11:36;;;;;;;10.52;5.70;;;;;;;4.20;100.00;96448.06;4980592;28;20624;-66
2024/01/01 00:14:03;;;;;;;12.13;4.80;;;;;;;4.19;100.00;96443.75;4976808;28;20421;-67
2024/01/01 00:16:31;;;;;;;12.60;6.18;;;;;;;4.09;100.00;96447.03;4981866;28;20717;-68
2024/01/01 00:18:58;;;;;;;15.27;6.78;;;;;;;4.01;100.00;96442.81;4978982;28;20061;-65
2024/01/01 00:21:26;;;;;;;13.48;6.05;;;;;;;3.93;100.00;96443.16;4981173;28;20742;-66
2024/01/01 00:23:53;;;;;;;14.50;6.97;;;;;;;3.86;100.00;96448.63;4980284;28;20038;-67
2024/01/01 00:26:19;;;;;;;14.43;7.05;;;;;;;3.76;100.00;96436.63;4984670;28;20046;-65
2024/01/01 00:28:54;;;;;;;16.45;9.43;;;;;;;3.69;100.00;96443.94;4983244;28;20090;-67
2024/01/01 00:31:21;;;;;;;17.90;10.35;;;;;;;3.63;100.00;96437.69;4984704;28;20042;-67
2024/01/01 00:33:47;;;;;;;19.05;10.90;;;;;;;3.63;100.00;96439.53;4982919;28;20061;-64
2024/01/01 00:36:14;;;;;;;19.40;11.38;;;;;;;3.56;100.00;96434.28;4982553;28;20125;-66
2024/01/01 00:38:41;;;;;;;23.13;11.68;;;;;;;3.50;100.00;96429.81;4984300;28;20050;-67
2024/01/01 00:41:14;;;;;;;23.48;11.77;;;;;;;3.40;100.00;96432.25;4983561;28;20130;-68
2024/01/01 00:43:43;;;;;;;24.85;13.23;;;;;;;3.35;100.00;96435.59;4981091;28;20796;-67
2024/01/01 00:46:10;;;;;;;28.13;14.45;;;;;;;3.25;100.00;96428.97;4983591;28;20046;-66
2024/01/01 00:48:37;;;;;;;27.45;14.73;;;;;;;3.20;100.00;96434.19;4979075;28;20434;-66
2024/01/01 00:51:04;;;;;;;24.92;14.02;;;;;;;3.15;100.00;96441.25;4980271;28;20046;-67
2024/01/01 00:53:30;;;;;;;25.40;15.20;;;;;;;3.13;100.00;96441.47;4980061;28;20125;-66
2024/01/01 00:55:57;;;;;;;31.27;14.85;;;;;;;3.04;100.00;96443.66;4982840;28;20129;-65
2024/01/01 00:58:23;;;;;;;33.35;17.15;;;;;;;3.04;100.00;96449.03;4984348;28;20467;-64
2024/01/01 01:00:50;;;;;;;28.38;17.45;;;;;;;3.03;100.00;96454.59;4981519;28;20137;-65
2024/01/01 01:03:16;;;;;;;31.52;16.92;;;;;;;3.06;100.00;96454.16;4983213;28;20050;-66
2024/01/01 01:05:43;;;;;;;31.80;18.33;;;;;;;3.11;100.00;96456.94;4984510;28;20042;-66
2024/01/01 01:08:10;;;;;;;28.55;15.68;;;;;;;3.11;100.00;96459.63;4983509;28;20074;-68
2024/01/01 01:10:36;;;;;;;34.38;19.08;;;;;;;3.06;100.00;96464.84;4983804;28;20536;-64
2024/01/01 01:13:04;;;;;;;28.25;17.05;;;;;;;3.07;100.00;96469.16;4980478;28;20054;-62
2024/01/01 01:15:32;;;;;;;32.95;18.02;;;;;;;3.10;100.00;96474.84;4983185;28;20053;-64
2024/01/01 01:17:58;;;;;;;34.03;18.50;;;;;;;3.11;100.00;96473.81;4982615;28;20129;-63
2024/01/01 01:20:25;;;;;;;29.75;17.67;;;;;;;3.17;100.00;96481.97;4972954;28;20423;-64
2024/01/01 01:22:52;;;;;;;28.02;16.13;;;;;;;3.25;100.00;96495.84;4975102;28;20042;-62
2024/01/01 01:25:18;;;;;;;35.63;17.25;;;;;;;3.33;100.00;96485.88;4979059;28;20054;-65
2024/01/01 01:27:45;;;;;;;27.67;16.67;;;;;;;3.40;100.00;96483.94;4983062;28;20049;-63
2024/01/01 01:30:12;;;;;;;29.02;17.27;;;;;;;3.27;100.00;96478.78;4951789;28;20133;-67
2024/01/01 01:32:39;;;;;;;30.60;16.83;;;;;;;3.20;100.00;96481.50;4972180;28;20069;-62
2024/01/01 01:35:06;;;;;;;31.27;16.13;;;;;;;3.21;100.00;96475.13;4980393;28;20038;-64
2024/01/01 01:37:32;;;;;;;28.67;15.32;;;;;;;3.19;100.00;96467.34;4982488;28;20510;-66
2024/01/01 01:39:59;;;;;;;26.48;14.38;;;;;;;3.15;100.00;96462.66;4981816;28;20049;-65
2024/01/01 01:42:27;;;;;;;24.48;13.68;;;;;;;3.11;100.00;96467.66;4982807;28;20518;-65
2024/01/01 01:44:53;;;;;;;24.13;13.75;;;;;;;3.18;100.00;96471.06;4982603;28;20457;-64
2024/01/01 01:47:21;;;;;;;22.20;13.25;;;;;;;3.25;100.00;96466.41;4982699;28;20049;-64
2024/01/01 01:49:48;;;;;;;22.85;12.43;;;;;;;3.22;100.00;96466.06;4983171;28;20048;-65
2024/01/01 01:52:15;;;;;;;20.83;11.25;;;;;;;3.21;100.00;96467.91;4985455;28;20530;-64
2024/01/01 01:54:44;;;;;;;18.65;11.45;;;;;;;3.21;100.00;96467.91;4980229;28;20546;-64
2024/01/01 01:57:13;;;;;;;21.35;10.77;;;;;;;3.25;100.00;96465.63;4978735;28;20062;-63
2024/01/01 01:59:44;;;;;;;18.55;9.32;;;;;;;3.32;100.00;96465.53;4983765;28;20057;-64
2024/01/01 02:02:11;;;;;;;18.50;9.60;;;;;;;3.35;100.00;96465.03;4981602;28;20042;-65
2024/01/01 02:04:38;;;;;;;12.38;7.47;;;;;;;3.37;100.00;96462.97;4984417;28;20638;-63
2024/01/01 02:07:06;;;;;;;13.95;6.65;;;;;;;3.41;100.00;96456.13;4983587;28;20566;-64
2024/01/01 02:09:33;;;;;;;10.30;5.75;;;;;;;3.42;100.00;96463.09;4984875;28;20549;-62
2024/01/01 02:11:59;;;;;;;13.52;4.90;;;;;;;3.43;100.00;96451.34;4983801;28;20053;-63
2024/01/01 02:14:26;;;;;;;8.65;4.10;;;;;;;3.44;100.00;96446.81;4982600;28;20108;-64
2024/01/01 02:16:52;;;;;;;7.75;3.55;;;;;;;3.44;100.00;96447.66;4982611;28;20391;-65
2024/01/01 02:19:21;;;;;;;7.20;3.00;;;;;;;3.46;100.00;96442.06;4981487;28;20051;-67
2024/01/01 02:21:50;;;;;;;6.25;2.75;;;;;;;3.48;100.00;96435.44;4981537;28;20049;-65
2024/01/01 02:24:17;;;;;;;7.57;2.58;;;;;;;3.44;100.00;96436.94;4987521;28;20332;-63
2024/01/01 02:26:45;;;;;;;5.25;2.05;;;;;;;3.44;100.00;96428.09;4975995;28;20573;-65
2024/01/01 02:29:12;;;;;;;5.53;2.50;;;;;;;3.39;100.00;96428.75;4983897;28;20038;-63
2024/01/01 02:31:39;;;;;;;5.90;2.55;;;;;;;3.35;100.00;96443.63;4984480;28;20047;-62
2024/01/01 02:34:06;;;;;;;5.57;2.25;;;;;;;3.42;100.00;96444.38;4984170;28;20046;-64
2024/01/01 02:36:38;;;;;;;6.55;2.60;;;;;;;3.42;100.00;96451.59;4985488;28;20038;-63
2024/01/01 02:39:06;;;;;;;6.97;2.70;;;;;;;3.51;100.00;96453.69;4980630;28;20592;-63
2024/01/01 02:41:34;;;;;;;5.25;2.22;;;;;;;3.54;100.00;96452.41;4981918;28;20050;-62
2024/01/01 02:44:02;;;;;;;6.25;2.47;;;;;;;3.51;100.00;96463.59;4983955;28;20042;-63
2024/01/01 02:46:29;;;;;;;4.55;1.88;;;;;;;3.54;100.00;96460.44;4980003;28;20038;-63
2024/01/01 02:48:56;;;;;;;5.88;2.17;;;;;;;3.55;100.00;96463.94;4969771;28;20049;-67
2024/01/01 02:51:23;;;;;;;5.28;2.30;;;;;;;3.54;100.00;96459.66;4976391;28;20046;-64
2024/01/01 02:53:50;;;;;;;5.40;2.08;;;;;;;3.50;100.00;96456.59;4983700;28;20050;-64
2024/01/01 02:56:24;;;;;;;5.07;2.20;;;;;;;3.50;100.00;96456.59;4978898;28;20035;-64
2024/01/01 02:58:53;;;;;;;5.40;1.88;;;;;;;3.54;100.00;96460.44;4983908;28;20073;-66
2024/01/01 03:01:19;;;;;;;6.82;2.20;;;;;;;3.53;100.00;96456.13;4984267;28;20049;-63
2024/01/01 03:03:46;;;;;;;6.07;2.45;;;;;;;3.53;100.00;96460.69;4983452;28;20074;-66
2024/01/01 03:06:17;;;;;;;5.20;2.08;;;;;;;3.48;100.00;96462.19;4981990;28;20046;-67
2024/01/01 03:08:43;;;;;;;7.75;3.25;;;;;;;3.43;100.00;96459.38;4983529;28;20468;-64
2024/01/01 03:11:10;;;;;;;7.68;2.30;;;;;;;3.37;100.00;96469.16;4981304;28;20776;-64
2024/01/01 03:13:37;;;;;;;7.70;3.25;;;;;;;3.35;100.00;96475.75;4983779;28;20054;-65
2024/01/01 03:16:04;;;;;;;5.88;1.85;;;;;;;3.42;100.00;96478.34;4980703;28;20046;-63
2024/01/01 03:18:31;;;;;;;4.80;1.90;;;;;;;3.49;100.00;96482.56;4983204;28;20173;-65
2024/01/01 03:20:57;;;;;;;5.07;1.83;;;;;;;3.45;100.00;96481.38;4982747;28;20121;-64
2024/01/01 03:23:24;;;;;;;4.07;1.75;;;;;;;3.49;100.00;96479.88;4983303;28;20308;-63
2024/01/01 03:25:51;;;;;;;6.25;1.85;;;;;;;3.51;100.00;96479.66;4983252;28;20054;-66
2024/01/01 03:28:17;;;;;;;7.65;2.25;;;;;;;3.50;100.00;96475.31;4981087;28;20699;-64
2024/01/01 03:30:44;;;;;;;5.95;1.88;;;;;;;3.51;100.00;96482.34;4984052;28;20502;-63
2024/01/01 03:33:10;;;;;;;6.20;1.95;;;;;;;3.55;100.00;96469.31;4983563;28;20058;-64
2024/01/01 03:35:37;;;;;;;8.10;2.58;;;;;;;3.62;100.00;96470.03;4981008;28;20646;-65
2024/01/01 03:38:04;;;;;;;4.68;2.03;;;;;;;3.67;100.00;96483.53;4976960;28;20045;-62
2024/01/01 03:40:32;;;;;;;5.00;2.08;;;;;;;3.78;100.00;96479.25;4997835;28;20140;-63
2024/01/01 03:43:00;;;;;;;4.90;1.50;;;;;;;3.77;100.00;96481.09;4983630;28;20054;-65
2024/01/01 03:45:26;;;;;;;4.75;1.70;;;;;;;3.79;100.00;96472.84;4983133;28;20038;-63
2024/01/01 03:47:53;;;;;;;4.80;1.70;;;;;;;3.72;100.00;96483.66;4983520;28;20038;-65
2024/01/01 03:50:20;;;;;;;6.18;1.80;;;;;;;3.69;100.00;96485.97;4985335;28;20050;-66
2024/01/01 03:52:47;;;;;;;6.30;1.63;;;;;;;3.59;100.00;96486.53;4974951;28;20051;-62
2024/01/01 03:55:16;;;;;;;3.20;1.30;;;;;;;3.54;100.00;96494.44;4985241;28;20081;-63
2024/01/01 03:57:44;;;;;;;4.95;1.63;;;;;;;3.50;100.00;96505.59;4986914;28;20070;-65
2024/01/01 04:00:11;;;;;;;6.45;2.15;;;;;;;3.46;100.00;96503.63;4986093;28;20498;-63
2024/01/01 04:02:40;;;;;;;3.65;1.60;;;;;;;3.44;100.00;96497.66;4986794;28;20061;-62
2024/01/01 04:05:08;;;;;;;5.20;1.25;;;;;;;3.35;100.00;96506.00;4983387;28;20096;-63
2024/01/01 04:07:37;;;;;;;5.35;1.60;;;;;;;3.40;100.00;96507.19;4984265;28;20069;-64
2024/01/01 04:10:05;;;;;;;2.40;1.30;;;;;;;3.33;100.00;96507.28;4996638;28;20419;-65
2024/01/01 04:12:32;;;;;;;5.35;1.30;;;;;;;3.24;100.00;96501.41;4989360;28;20109;-64
2024/01/01 04:14:59;;;;;;;6.82;1.45;;;;;;;3.11;100.00;96502.44;4979333;28;20483;-62
2024/01/01 04:17:26;;;;;;;3.33;1.10;;;;;;;3.04;100.00;96507.84;4979812;28;20047;-64
2024/01/01 04:19:53;;;;;;;2.28;0.98;;;;;;;3.06;100.00;96510.31;4986027;28;20054;-60
2024/01/01 04:22:20;;;;;;;2.47;1.00;;;;;;;3.10;100.00;96501.59;4985364;28;20088;-59
2024/01/01 04:24:52;;;;;;;3.75;1.45;;;;;;;3.12;100.00;96502.19;4983325;28;20473;-60
2024/01/01 04:27:19;;;;;;;4.45;1.55;;;;;;;3.12;100.00;96502.19;4983349;28;20050;-61
2024/01/01 04:29:45;;;;;;;5.18;1.30;;;;;;;3.14;100.00;96493.97;4985451;28;20042;-60
2024/01/01 04:32:12;;;;;;;7.80;1.33;;;;;;;3.15;100.00;96490.22;4986385;28;20249;-59
2024/01/01 04:34:39;;;;;;;3.28;1.23;;;;;;;3.11;100.00;96481.84;4977293;28;20305;-60
2024/01/01 04:37:05;;;;;;;3.90;1.15;;;;;;;3.03;100.00;96474.13;4981339;28;20489;-60
2024/01/01 04:39:32;;;;;;;3.92;1.05;;;;;;;2.94;100.00;96478.16;4982633;28;20053;-59
2024/01/01 04:41:58;;;;;;;5.13;1.05;;;;;;;2.80;100.00;96482.84;4977865;28;20546;-60
2024/01/01 04:44:25;;;;;;;3.58;1.00;;;;;;;2.69;100.00;96485.22;4975410;28;20050;-60
2024/01/01 04:46:52;;;;;;;7.60;1.30;;;;;;;2.63;100.00;96485.31;4985771;28;20586;-60
2024/01/01 04:49:19;;;;;;;4.72;0.93;;;;;;;2.53;100.00;96475.94;4980042;28;20054;-60
2024/01/01 04:51:45;;;;;;;5.82;1.45;;;;;;;2.43;100.00;96478.34;4979938;28;20042;-61
2024/01/01 04:54:12;;;;;;;4.68;1.20;;;;;;;2.46;100.00;96481.38;4974252;28;21043;-60
2024/01/01 04:56:38;;;;;;;3.38;0.98;;;;;;;2.65;100.00;96489.38;4978905;28;20402;-59
2024/01/01 04:59:06;;;;;;;5.50;1.00;;;;;;;2.83;100.00;96488.56;4967535;28;20130;-59
2024/01/01 05:01:33;;;;;;;5.82;1.02;;;;;;;3.03;100.00;96481.34;4971638;28;20596;-59
2024/01/01 05:03:59;;;;;;;1.85;0.57;;;;;;;3.11;100.00;96489.06;4973652;28;20510;-59
2024/01/01 05:06:26;;;;;;;4.38;1.02;;;;;;;3.17;100.00;96490.00;4977406;28;20084;-59
2024/01/01 05:08:53;;;;;;;3.55;0.88;;;;;;;3.25;100.00;96495.03;4984697;28;20153;-59
2024/01/01 05:11:19;;;;;;;4.13;1.10;;;;;;;3.30;100.00;96494.34;4986051;28;20109;-59
2024/01/01 05:13:46;;;;;;;1.70;0.60;;;;;;;3.40;100.00;96489.28;4979116;28;20042;-60
2024/01/01 05:16:13;;;;;;;5.38;0.75;;;;;;;3.49;100.00;96497.78;4983075;28;20190;-60
2024/01/01 05:18:39;;;;;;;7.32;1.33;;;;;;;3.53;100.00;96503.53;4983771;28;20100;-60
2024/01/01 05:21:06;;;;;;;2.33;0.57;;;;;;;3.58;100.00;96504.44;4979472;28;20045;-60
2024/01/01 05:23:33;;;;;;;8.00;0.98;;;;;;;3.63;100.00;96509.13;4979789;28;20325;-60
2024/01/01 05:25:59;;;;;;;8.07;1.45;;;;;;;3.72;100.00;96518.47;4982155;28;20516;-60
2024/01/01 05:28:26;;;;;;;3.78;1.10;;;;;;;3.83;100.00;96513.38;4985783;28;20481;-60
2024/01/01 05:30:52;;;;;;;2.78;0.70;;;;;;;3.87;100.00;96528.75;4984641;28;20691;-60
2024/01/01 05:33:19;;;;;;;2.25;0.60;;;;;;;3.79;100.00;96521.03;4977790;28;20053;-59
2024/01/01 05:35:46;;;;;;;3.60;0.60;;;;;;;3.76;100.00;96527.66;4979750;28;20042;-60
2024/01/01 05:38:12;;;;;;;3.55;0.82;;;;;;;3.78;100.00;96538.16;4984642;28;20533;-60
2024/01/01 05:40:39;;;;;;;3.25;0.90;;;;;;;3.87;100.00;96544.81;4975124;28;20045;-60
2024/01/01 05:43:06;;;;;;;4.55;0.80;;;;;;;3.97;100.00;96541.56;4979756;28;20529;-60
2024/01/01 05:45:32;;;;;;;8.10;1.00;;;;;;;4.11;100.00;96549.41;4968880;28;20475;-60
2024/01/01 05:47:59;;;;;;;4.22;0.80;;;;;;;4.12;100.00;96546.50;4981863;28;20046;-60
2024/01/01 05:50:27;;;;;;;4.40;1.02;;;;;;;4.18;100.00;96550.13;4977292;28;20061;-60
2024/01/01 05:52:53;;;;;;;3.60;0.85;;;;;;;4.22;100.00;96545.94;4984433;28;20038;-59
2024/01/01 05:55:20;;;;;;;3.45;0.70;;;;;;;4.28;100.00;96544.19;4981674;28;20065;-61
2024/01/01 05:57:46;;;;;;;5.80;0.80;;;;;;;4.25;100.00;96548.16;4984364;28;20042;-61
2024/01/01 06:00:13;;;;;;;5.25;1.05;;;;;;;4.24;100.00;96551.88;4981154;28;20136;-59
2024/01/01 06:02:40;;;;;;;4.65;1.05;;;;;;;4.23;100.00;96546.72;4972693;28;20093;-60
2024/01/01 06:05:07;;;;;;;5.85;0.85;;;;;;;4.37;100.00;96550.84;4974247;28;20462;-60
2024/01/01 06:07:33;;;;;;;3.17;0.65;;;;;;;4.40;100.00;96546.88;4980517;28;20042;-59
2024/01/01 06:10:00;;;;;;;5.63;0.80;;;;;;;4.39;100.00;96551.41;4982630;28;20042;-60
2024/01/01 06:12:27;;;;;;;3.63;0.80;;;;;;;4.40;100.00;96546.88;4983895;28;20108;-59
2024/01/01 06:14:54;;;;;;;4.88;1.00;;;;;;;4.34;100.00;96545.09;4974581;28;20616;-57
2024/01/01 06:17:20;;;;;;;5.90;0.90;;;;;;;4.33;100.00;96554.19;4976170;28;20038;-60
2024/01/01 06:19:48;;;;;;;3.15;0.85;;;;;;;4.22;100.00;96551.28;4984355;28;20042;-61
2024/01/01 06:22:15;;;;;;;2.20;0.60;;;;;;;4.24;100.00;96554.53;4982626;28;20465;-61
2024/01/01 06:24:42;;;;;;;6.95;0.85;;;;;;;4.22;100.00;96553.97;4976523;28;20409;-59
2024/01/01 06:27:08;;;;;;;4.40;0.75;;;;;;;4.20;100.00;96558.72;4983203;28;20088;-60
2024/01/01 06:29:36;;;;;;;5.13;1.08;;;;;;;4.15;100.00;96558.59;4984200;28;20058;-61
2024/01/01 06:32:03;;;;;;;6.03;0.98;;;;;;;4.13;100.00;96568.75;4981728;28;20787;-61
2024/01/01 06:34:30;;;;;;;4.28;1.00;;;;;;;4.06;100.00;96570.72;4976393;28;20050;-59
2024/01/01 06:36:56;;;;;;;5.53;1.08;;;;;;;4.01;100.00;96566.03;4973545;28;20102;-60
2024/01/01 06:39:23;;;;;;;5.32;1.08;;;;;;;4.01;100.00;96568.72;4983739;28;20077;-60
2024/01/01 06:41:49;;;;;;;3.13;0.85;;;;;;;3.97;100.00;96576.41;4968019;28;20535;-59
2024/01/01 06:44:16;;;;;;;4.55;1.08;;;;;;;4.02;100.00;96575.72;4979016;28;20250;-61
2024/01/01 06:46:42;;;;;;;2.50;0.95;;;;;;;3.99;100.00;96582.38;4981760;28;20680;-60
2024/01/01 06:49:09;;;;;;;5.82;0.82;;;;;;;3.93;100.00;96577.91;4982453;28;20145;-60
2024/01/01 06:51:36;;;;;;;5.88;1.20;;;;;;;3.92;100.00;96584.31;4976089;28;20671;-60
2024/01/01 06:54:02;;;;;;;3.80;0.73;;;;;;;3.90;100.00;96583.72;4979804;28;20042;-60
2024/01/01 06:56:29;;;;;;;4.55;0.70;;;;;;;3.84;100.00;96588.09;4976453;28;20035;-60
2024/01/01 06:58:56;;;;;;;4.93;0.80;;;;;;;3.71;100.00;96578.41;4981581;28;20047;-59
2024/01/01 07:01:22;;;;;;;5.93;1.33;;;;;;;3.72;100.00;96576.56;4975866;28;20061;-59
2024/01/01 07:03:49;;;;;;;1.30;0.70;;;;;;;3.76;100.00;96575.88;4983216;28;20120;-60
2024/01/01 07:06:15;;;;;;;4.57;0.98;;;;;;;3.70;100.00;96584.00;4971099;28;20038;-60
2024/01/01 07:08:42;;;;;;;2.25;0.85;;;;;;;3.70;100.00;96579.47;4941334;28;1081284;-60
2024/01/01 07:11:08;;;;;;;5.15;1.00;;;;;;;3.75;100.00;96582.28;4982234;28;20053;-59
2024/01/01 07:13:35;;;;;;;7.10;0.73;;;;;;;3.68;100.00;96597.59;4982445;28;20046;-60
2024/01/01 07:16:02;;;;;;;3.15;1.05;;;;;;;3.65;100.00;96608.78;4982135;28;20439;-59
2024/01/01 07:18:29;;;;;;;2.80;0.70;;;;;;;3.69;100.00;96614.50;4974166;28;20054;-58
2024/01/01 07:20:56;;;;;;;5.50;0.70;;;;;;;3.72;100.00;96617.53;4971011;28;20051;-60
2024/01/01 07:23:22;;;;;;;2.97;0.68;;;;;;;3.71;100.00;96610.56;4973597;28;20078;-59
2024/01/01 07:25:50;;;;;;;4.05;0.77;;;;;;;3.70;100.00;96621.47;4982447;28;20065;-62
2024/01/01 07:28:17;;;;;;;4.78;1.05;;;;;;;3.66;100.00;96620.31;4980539;28;20050;-61
2024/01/01 07:30:44;;;;;;;4.78;0.90;;;;;;;3.62;100.00;96620.75;4982687;28;20496;-61
2024/01/01 07:33:10;;;;;;;3.63;0.93;;;;;;;3.58;100.00;96621.44;4980926;28;20045;-62
2024/01/01 07:35:37;;;;;;;4.32;0.77;;;;;;;3.60;100.00;96636.22;4980722;28;20453;-62
2024/01/01 07:38:03;;;;;;;3.67;0.80;;;;;;;3.60;100.00;96624.69;4980939;28;20057;-62
2024/01/01 07:40:30;;;;;;;1.25;0.40;;;;;;;3.57;100.00;96627.84;4979447;28;20645;-63
2024/01/01 07:42:57;;;;;;;4.93;0.80;;;;;;;3.62;100.00;96641.34;4980696;28;20038;-60
2024/01/01 07:45:24;;;;;;;3.55;0.63;;;;;;;3.63;100.00;96635.78;4971668;28;20049;-62
2024/01/01 07:47:50;;;;;;;2.53;0.70;;;;;;;3.67;100.00;96636.13;4977262;28;20038;-62
2024/01/01 07:50:17;;;;;;;4.35;0.68;;;;;;;3.69;100.00;96642.06;4980444;28;20213;-61
2024/01/01 07:52:48;;;;;;;2.13;0.57;;;;;;;3.73;100.00;96640.56;4981611;28;20046;-61
2024/01/01 07:55:14;;;;;;;4.90;0.95;;;;;;;3.74;100.00;96644.09;4980294;28;20144;-62
2024/01/01 07:57:41;;;;;;;5.03;0.90;;;;;;;3.76;100.00;96633.97;4974811;28;20041;-63
2024/01/01 08:00:09;;;;;;;5.10;1.17;;;;;;;3.82;100.00;96649.13;4970693;28;20047;-61
2024/01/01 08:02:36;;;;;;;3.40;0.75;;;;;;;3.89;100.00;96670.47;4980568;28;20050;-61
2024/01/01 08:05:03;;;;;;;3.42;0.75;;;;;;;3.93;100.00;96668.13;4975590;28;20046;-62
2024/01/01 08:07:30;;;;;;;5.82;0.90;;;;;;;3.97;100.00;96678.19;4980717;28;20533;-61
2024/01/01 08:09:57;;;;;;;4.07;0.80;;;;;;;3.97;100.00;96662.13;4977560;28;20046;-61
2024/01/01 08:12:24;;;;;;;2.13;0.70;;;;;;;3.96;100.00;96665.03;4980461;28;20101;-62
2024/01/01 08:14:50;;;;;;;1.20;0.50;;;;;;;3.98;100.00;96666.41;4981638;28;20042;-63
2024/01/01 08:17:17;;;;;;;2.70;0.73;;;;;;;3.94;100.00;96673.28;4970555;28;20222;-62
2024/01/01 08:19:43;;;;;;;6.45;0.65;;;;;;;3.85;100.00;96680.00;4974018;28;20617;-62
2024/01/01 08:22:10;;;;;;;5.60;0.85;;;;;;;3.84;100.00;96659.63;4965957;28;20054;-62
2024/01/01 08:24:37;;;;;;;5.30;0.90;;;;;;;3.85;100.00;96658.56;4978765;28;20057;-61
2024/01/01 08:27:04;;;;;;;2.25;0.80;;;;;;;3.87;100.00;96662.66;4973450;28;20494;-63
2024/01/01 08:29:31;;;;;;;3.35;0.63;;;;;;;3.94;100.00;96667.91;4979283;28;20503;-62
2024/01/01 08:32:01;;;;;;;4.28;0.68;;;;;;;4.02;100.00;96667.59;4973784;28;20046;-62
2024/01/01 08:34:31;;;;;;;4.70;1.00;;;;;;;4.14;100.00;96658.81;4981249;28;20678;-61
2024/01/01 08:37:01;;;;;;;2.33;0.70;;;;;;;4.15;100.00;96671.16;4972108;28;20046;-62
2024/01/01 08:39:28;;;;;;;3.40;0.63;;;;;;;4.21;100.00;96670.25;4978377;28;20053;-62
2024/01/01 08:41:54;;;;;;;3.22;0.70;;;;;;;4.21;100.00;96667.56;4981737;28;20391;-61
2024/01/01 08:44:21;;;;;;;2.70;0.70;;;;;;;4.25;100.00;96666.06;4981131;28;20050;-62
2024/01/01 08:46:48;;;;;;;2.65;0.70;;;;;;;4.36;100.00;96671.69;4977210;28;20081;-62
2024/01/01 08:49:14;;;;;;;5.97;0.77;;;;;;;4.42;100.00;96673.44;4980913;28;20069;-62
2024/01/01 08:51:41;;;;;;;3.17;0.70;;;;;;;4.50;100.00;96669.63;4971737;28;20050;-63
2024/01/01 08:54:07;;;;;;;4.47;1.27;;;;;;;4.45;100.00;96669.50;4978778;28;20129;-61
2024/01/01 08:56:34;;;;;;;3.78;0.85;;;;;;;4.47;100.00;96681.63;4980242;28;20043;-61
2024/01/01 08:59:00;;;;;;;2.88;0.70;;;;;;;4.51;100.00;96681.97;4978090;28;20046;-62
2024/01/01 09:01:27;;;;;;;2.15;0.57;;;;;;;4.63;100.00;96690.03;4983462;28;20126;-62
2024/01/01 09:03:56;;;;;;;3.53;0.85;;;;;;;4.67;100.00;96689.34;4982095;28;20054;-62
2024/01/01 09:06:23;;;;;;;3.33;0.63;;;;;;;4.69;100.00;96684.56;4981626;28;20038;-62
2024/01/01 09:08:49;;;;;;;3.40;0.70;;;;;;;4.82;100.00;96683.53;4977265;28;20050;-63
2024/01/01 09:11:16;;;;;;;3.30;0.80;;;;;;;4.81;100.00;96683.75;4976082;28;20823;-63
2024/01/01 09:13:42;;;;;;;1.83;0.60;;;;;;;4.85;100.00;96684.94;4974333;28;20050;-62
2024/01/01 09:16:09;;;;;;;3.58;0.70;;;;;;;4.90;100.00;96682.38;4983120;28;20046;-61
2024/01/01 09:18:37;;;;;;;3.05;0.90;;;;;;;5.06;100.00;96688.91;4975894;28;20126;-63
2024/01/01 09:21:04;;;;;;;4.90;0.98;;;;;;;5.14;100.00;96695.81;4978753;28;20049;-62
2024/01/01 09:23:31;;;;;;;4.85;1.40;;;;;;;5.26;100.00;96692.28;4975977;28;20051;-63
2024/01/01 09:25:58;;;;;;;3.15;0.95;;;;;;;5.27;100.00;96685.88;4974583;28;20093;-63
2024/01/01 09:28:25;;;;;;;7.07;1.10;;;;;;;5.31;100.00;96682.47;4979453;28;20039;-63
2024/01/01 09:30:51;;;;;;;4.68;0.82;;;;;;;5.34;100.00;96695.44;4978606;28;20035;-62
2024/01/01 09:33:18;;;;;;;2.78;0.68;;;;;;;5.58;100.00;96690.03;4972299;28;20065;-63
2024/01/01 09:35:46;;;;;;;5.40;1.05;;;;;;;5.75;100.00;96683.91;4984054;28;20049;-61
2024/01/01 09:38:13;;;;;;;3.70;0.70;;;;;;;5.72;100.00;96679.03;4975152;28;20050;-63
2024/01/01 09:40:43;;;;;;;4.50;0.60;;;;;;;5.77;100.00;96691.72;4983724;28;20046;-62
2024/01/01 09:43:17;;;;;;;6.85;1.00;;;;;;;5.87;100.00;96689.28;4980912;28;20046;-62
2024/01/01 09:45:46;;;;;;;4.90;0.90;;;;;;;5.83;100.00;96680.06;4975560;28;20125;-62
2024/01/01 09:48:14;;;;;;;5.97;0.90;;;;;;;5.77;100.00;96684.50;4981740;28;20125;-61
2024/01/01 09:50:43;;;;;;;3.60;0.75;;;;;;;5.78;100.00;96688.81;4974018;28;20074;-63
2024/01/01 09:53:10;;;;;;;4.60;0.80;;;;;;;5.83;100.00;96691.59;4974645;28;20042;-62
2024/01/01 09:55:38;;;;;;;6.07;0.95;;;;;;;5.97;100.00;96694.03;4981681;28;20050;-62
2024/01/01 09:58:05;;;;;;;3.97;0.77;;;;;;;6.06;99.12;96703.38;4980084;28;20063;-61
2024/01/01 10:00:32;;;;;;;10.07;1.20;;;;;;;6.17;96.25;96708.94;4982128;28;20476;-62
2024/01/01 10:03:11;;;;;;;4.90;1.05;;;;;;;6.29;95.98;96696.25;4975953;28;20448;-62
2024/01/01 10:05:39;;;;;;;6.28;1.65;;;;;;;6.26;95.35;96702.09;4981922;28;20042;-63
2024/01/01 10:08:11;;;;;;;3.95;1.08;;;;;;;6.35;95.76;96699.88;4975532;28;20428;-62
2024/01/01 10:10:42;;;;;;;5.18;0.88;;;;;;;6.29;95.41;96684.69;4970698;28;20039;-62
2024/01/01 10:13:15;;;;;;;6.43;1.17;;;;;;;6.29;95.22;96704.31;4979454;28;20050;-63
2024/01/01 10:15:43;;;;;;;9.80;1.38;;;;;;;6.34;93.16;96704.41;4975749;28;20421;-62
2024/01/01 10:18:11;;;;;;;1.73;0.65;;;;;;;6.42;91.01;96697.03;4970171;28;20038;-62
2024/01/01 10:20:39;;;;;;;4.97;0.88;;;;;;;6.50;91.80;96702.81;4983029;28;20050;-62
2024/01/01 10:23:29;;;;;;;6.10;0.90;;;;;;;6.59;90.23;96692.47;4981103;28;20057;-61
2024/01/01 10:26:11;;;;;;;4.13;0.90;;;;;;;6.61;90.89;96701.13;4976591;28;20061;-63
2024/01/01 10:28:40;;;;;;;6.80;1.38;;;;;;;6.63;89.93;96696.31;4977756;28;20049;-63
2024/01/01 10:31:07;;;;;;;7.38;1.13;;;;;;;6.84;88.80;96702.03;4981867;28;20557;-63
2024/01/01 10:33:34;;;;;;;5.00;0.75;;;;;;;6.86;87.80;96709.88;4976702;28;20569;-63
2024/01/01 10:36:04;;;;;;;4.43;0.80;;;;;;;6.86;88.27;96709.88;4978307;28;20061;-63
2024/01/01 10:38:31;;;;;;;9.15;2.92;;;;;;;6.50;88.21;96702.00;4968239;28;20053;-63
2024/01/01 10:40:59;;;;;;;4.97;1.00;;;;;;;6.49;88.47;96716.53;4977007;28;20056;-62
2024/01/01 10:43:27;;;;;;;9.15;1.05;;;;;;;6.49;90.43;96716.53;4982314;28;20108;-61
2024/01/01 10:46:04;;;;;;;4.25;1.10;;;;;;;6.47;90.26;96722.13;4980640;28;20050;-63
2024/01/01 10:48:32;;;;;;;3.63;1.05;;;;;;;6.26;92.03;96729.00;4970865;28;20530;-63
2024/01/01 10:51:21;;;;;;;4.30;0.63;;;;;;;6.36;92.77;96739.13;4976346;28;20042;-62
2024/01/01 10:54:31;;;;;;;4.45;1.10;;;;;;;6.31;93.61;96729.13;4978758;28;20049;-62
2024/01/01 10:57:15;;;;;;;6.63;0.93;;;;;;;6.32;92.10;96737.97;4977630;28;20031;-62
2024/01/01 11:00:04;;;;;;;5.57;0.95;;;;;;;6.28;92.94;96731.44;4974553;28;20118;-61
2024/01/01 11:02:31;;;;;;;3.97;0.88;;;;;;;6.27;93.25;96740.56;4978197;28;20104;-63
2024/01/01 11:05:11;;;;;;;3.45;0.73;;;;;;;6.34;92.19;96746.63;4981255;28;20053;-61
2024/01/01 11:08:00;;;;;;;4.30;0.93;;;;;;;6.50;91.49;96735.09;4979837;28;20058;-63
2024/01/01 11:10:39;;;;;;;4.22;0.80;;;;;;;6.49;92.24;96743.41;4978120;28;20133;-63
2024/01/01 11:13:13;;;;;;;8.02;1.25;;;;;;;6.44;91.84;96740.59;4975659;28;20045;-63
2024/01/01 11:15:41;;;;;;;7.55;1.10;;;;;;;6.59;92.23;96750.84;4976389;28;20050;-63
2024/01/01 11:18:12;;;;;;;8.20;1.55;;;;;;;6.56;92.66;96746.75;4965983;28;20735;-63
2024/01/01 11:20:54;;;;;;;7.47;1.00;;;;;;;6.66;91.13;96750.72;4971499;28;20049;-63
2024/01/01 11:23:40;;;;;;;6.38;1.13;;;;;;;6.64;91.26;96749.06;4972900;28;20042;-64
2024/01/01 11:26:25;;;;;;;11.45;1.73;;;;;;;6.67;93.70;96742.38;4977480;28;20540;-63
2024/01/01 11:28:56;;;;;;;2.75;0.82;;;;;;;6.61;93.41;96744.19;4981575;28;20035;-62
2024/01/01 11:31:24;;;;;;;4.20;0.95;;;;;;;6.68;91.47;96740.50;4974753;28;20651;-63
2024/01/01 11:33:58;;;;;;;8.30;1.33;;;;;;;6.72;91.76;96744.34;4982259;28;20045;-63
2024/01/01 11:36:40;;;;;;;3.55;0.85;;;;;;;6.93;89.66;96745.50;4978874;28;20077;-63